sensor_id;sensor_type;location;lat;lon;timestamp;P1;durP1;ratioP1;P2;durP2;ratioP2
17670;SDS011;8954;48.694;8.940;2022-12-07T00:00:50;248.67;;;62.73;;
17670;SDS011;8954;48.694;8.940;2022-12-07T00:05:57;251.80;;;65.67;;
17670;SDS011;8954;48.694;8.940;2022-12-07T00:08:23;248.37;;;62.73;;
17670;SDS011;8954;48.694;8.940;2022-12-07T00:10:48;250.73;;;65.30;;
17670;SDS011;8954;48.694;8.940;2022-12-07T00:13:14;249.93;;;64.83;;
17670;SDS011;8954;48.694;8.940;2022-12-07T00:15:40;248.77;;;64.47;;
17670;SDS011;8954;48.694;8.940;2022-12-07T00:18:06;249.57;;;64.13;;
17670;SDS011;8954;48.694;8.940;2022-12-07T00:20:31;248.87;;;62.47;;
17670;SDS011;8954;48.694;8.940;2022-12-07T00:22:58;248.37;;;62.60;;
17670;SDS011;8954;48.694;8.940;2022-12-07T00:25:24;250.10;;;63.57;;
17670;SDS011;8954;48.694;8.940;2022-12-07T00:27:50;247.97;;;62.30;;
17670;SDS011;8954;48.694;8.940;2022-12-07T00:30:16;250.37;;;63.33;;
17670;SDS011;8954;48.694;8.940;2022-12-07T00:32:42;248.90;;;64.07;;
17670;SDS011;8954;48.694;8.940;2022-12-07T00:35:07;250.67;;;63.50;;
17670;SDS011;8954;48.694;8.940;2022-12-07T00:37:33;250.63;;;64.40;;
17670;SDS011;8954;48.694;8.940;2022-12-07T00:40:01;249.83;;;63.87;;
17670;SDS011;8954;48.694;8.940;2022-12-07T00:42:27;248.17;;;62.70;;
17670;SDS011;8954;48.694;8.940;2022-12-07T00:44:53;248.87;;;62.47;;
17670;SDS011;8954;48.694;8.940;2022-12-07T00:47:18;248.67;;;63.17;;
17670;SDS011;8954;48.694;8.940;2022-12-07T00:49:44;248.83;;;62.70;;
17670;SDS011;8954;48.694;8.940;2022-12-07T00:52:09;245.93;;;62.10;;
17670;SDS011;8954;48.694;8.940;2022-12-07T00:54:35;248.30;;;62.67;;
17670;SDS011;8954;48.694;8.940;2022-12-07T00:57:00;249.70;;;63.67;;
17670;SDS011;8954;48.694;8.940;2022-12-07T00:59:26;249.93;;;64.37;;
17670;SDS011;8954;48.694;8.940;2022-12-07T01:01:52;249.60;;;62.57;;
17670;SDS011;8954;48.694;8.940;2022-12-07T01:04:17;248.50;;;62.07;;
17670;SDS011;8954;48.694;8.940;2022-12-07T01:06:43;250.70;;;64.90;;
17670;SDS011;8954;48.694;8.940;2022-12-07T01:09:08;251.27;;;64.43;;
17670;SDS011;8954;48.694;8.940;2022-12-07T01:11:34;248.37;;;63.60;;
17670;SDS011;8954;48.694;8.940;2022-12-07T01:14:00;251.23;;;65.07;;
17670;SDS011;8954;48.694;8.940;2022-12-07T01:16:26;249.57;;;63.13;;
17670;SDS011;8954;48.694;8.940;2022-12-07T01:18:54;249.00;;;63.07;;
17670;SDS011;8954;48.694;8.940;2022-12-07T01:21:25;249.10;;;64.00;;
17670;SDS011;8954;48.694;8.940;2022-12-07T01:23:53;248.83;;;63.17;;
17670;SDS011;8954;48.694;8.940;2022-12-07T01:26:20;250.47;;;63.50;;
17670;SDS011;8954;48.694;8.940;2022-12-07T01:28:47;249.87;;;64.07;;
17670;SDS011;8954;48.694;8.940;2022-12-07T01:31:14;248.87;;;62.90;;
17670;SDS011;8954;48.694;8.940;2022-12-07T01:33:45;248.13;;;63.03;;
17670;SDS011;8954;48.694;8.940;2022-12-07T01:38:39;248.60;;;64.23;;
17670;SDS011;8954;48.694;8.940;2022-12-07T01:41:05;252.20;;;66.50;;
17670;SDS011;8954;48.694;8.940;2022-12-07T01:43:32;250.13;;;63.90;;
17670;SDS011;8954;48.694;8.940;2022-12-07T01:45:58;252.57;;;66.43;;
17670;SDS011;8954;48.694;8.940;2022-12-07T01:48:34;247.23;;;61.47;;
17670;SDS011;8954;48.694;8.940;2022-12-07T01:51:05;249.43;;;63.03;;
17670;SDS011;8954;48.694;8.940;2022-12-07T01:53:38;250.83;;;64.10;;
17670;SDS011;8954;48.694;8.940;2022-12-07T01:56:07;247.43;;;60.93;;
17670;SDS011;8954;48.694;8.940;2022-12-07T01:58:35;250.97;;;64.27;;
17670;SDS011;8954;48.694;8.940;2022-12-07T02:01:02;248.10;;;61.60;;
17670;SDS011;8954;48.694;8.940;2022-12-07T02:03:36;250.63;;;64.67;;
17670;SDS011;8954;48.694;8.940;2022-12-07T02:06:05;248.73;;;61.83;;
17670;SDS011;8954;48.694;8.940;2022-12-07T02:08:32;249.90;;;63.10;;
17670;SDS011;8954;48.694;8.940;2022-12-07T02:11:00;248.23;;;62.30;;
17670;SDS011;8954;48.694;8.940;2022-12-07T02:13:28;249.33;;;63.00;;
17670;SDS011;8954;48.694;8.940;2022-12-07T02:21:58;248.67;;;62.10;;
17670;SDS011;8954;48.694;8.940;2022-12-07T02:30:08;248.97;;;62.03;;
17670;SDS011;8954;48.694;8.940;2022-12-07T02:32:40;250.90;;;64.27;;
17670;SDS011;8954;48.694;8.940;2022-12-07T02:35:22;251.37;;;63.57;;
17670;SDS011;8954;48.694;8.940;2022-12-07T02:38:14;248.00;;;61.43;;
17670;SDS011;8954;48.694;8.940;2022-12-07T02:40:54;250.67;;;62.57;;
17670;SDS011;8954;48.694;8.940;2022-12-07T02:43:26;249.90;;;63.03;;
17670;SDS011;8954;48.694;8.940;2022-12-07T02:46:00;249.10;;;65.47;;
17670;SDS011;8954;48.694;8.940;2022-12-07T02:48:33;248.53;;;61.87;;
17670;SDS011;8954;48.694;8.940;2022-12-07T02:50:59;249.47;;;62.13;;
17670;SDS011;8954;48.694;8.940;2022-12-07T02:53:28;247.57;;;62.10;;
17670;SDS011;8954;48.694;8.940;2022-12-07T02:59:07;250.77;;;63.40;;
17670;SDS011;8954;48.694;8.940;2022-12-07T03:04:52;251.20;;;63.20;;
17670;SDS011;8954;48.694;8.940;2022-12-07T03:07:42;247.80;;;61.53;;
17670;SDS011;8954;48.694;8.940;2022-12-07T03:10:20;248.73;;;61.83;;
17670;SDS011;8954;48.694;8.940;2022-12-07T03:18:39;248.97;;;61.47;;
17670;SDS011;8954;48.694;8.940;2022-12-07T03:21:14;248.47;;;61.50;;
17670;SDS011;8954;48.694;8.940;2022-12-07T03:23:44;249.27;;;61.20;;
17670;SDS011;8954;48.694;8.940;2022-12-07T03:26:13;250.47;;;62.93;;
17670;SDS011;8954;48.694;8.940;2022-12-07T03:28:42;248.17;;;61.17;;
17670;SDS011;8954;48.694;8.940;2022-12-07T03:31:17;247.70;;;60.70;;
17670;SDS011;8954;48.694;8.940;2022-12-07T03:33:54;247.60;;;61.20;;
17670;SDS011;8954;48.694;8.940;2022-12-07T03:36:40;249.53;;;62.67;;
17670;SDS011;8954;48.694;8.940;2022-12-07T03:39:16;251.63;;;64.20;;
17670;SDS011;8954;48.694;8.940;2022-12-07T03:41:54;247.00;;;61.33;;
17670;SDS011;8954;48.694;8.940;2022-12-07T03:44:20;250.67;;;63.47;;
17670;SDS011;8954;48.694;8.940;2022-12-07T03:46:54;249.60;;;62.60;;
17670;SDS011;8954;48.694;8.940;2022-12-07T03:50:06;247.73;;;61.50;;
17670;SDS011;8954;48.694;8.940;2022-12-07T03:52:29;248.70;;;61.17;;
17670;SDS011;8954;48.694;8.940;2022-12-07T03:55:18;249.63;;;62.33;;
17670;SDS011;8954;48.694;8.940;2022-12-07T03:58:00;249.60;;;62.20;;
17670;SDS011;8954;48.694;8.940;2022-12-07T04:00:38;249.03;;;62.23;;
17670;SDS011;8954;48.694;8.940;2022-12-07T04:03:06;249.67;;;61.80;;
17670;SDS011;8954;48.694;8.940;2022-12-07T04:05:31;249.47;;;61.70;;
17670;SDS011;8954;48.694;8.940;2022-12-07T04:07:57;251.00;;;63.20;;
17670;SDS011;8954;48.694;8.940;2022-12-07T04:10:22;250.13;;;63.43;;
17670;SDS011;8954;48.694;8.940;2022-12-07T04:12:48;248.83;;;61.23;;
17670;SDS011;8954;48.694;8.940;2022-12-07T04:15:14;249.13;;;61.67;;
17670;SDS011;8954;48.694;8.940;2022-12-07T04:17:39;248.33;;;61.83;;
17670;SDS011;8954;48.694;8.940;2022-12-07T04:20:05;247.17;;;60.80;;
17670;SDS011;8954;48.694;8.940;2022-12-07T04:22:31;246.80;;;60.87;;
17670;SDS011;8954;48.694;8.940;2022-12-07T04:24:57;246.53;;;61.20;;
17670;SDS011;8954;48.694;8.940;2022-12-07T04:27:22;248.03;;;62.07;;
17670;SDS011;8954;48.694;8.940;2022-12-07T04:29:48;250.80;;;62.63;;
17670;SDS011;8954;48.694;8.940;2022-12-07T04:32:13;248.23;;;60.90;;
17670;SDS011;8954;48.694;8.940;2022-12-07T04:34:39;248.47;;;61.37;;
17670;SDS011;8954;48.694;8.940;2022-12-07T04:37:05;249.17;;;62.00;;
17670;SDS011;8954;48.694;8.940;2022-12-07T04:39:31;249.67;;;62.70;;
17670;SDS011;8954;48.694;8.940;2022-12-07T04:41:57;248.10;;;61.10;;
17670;SDS011;8954;48.694;8.940;2022-12-07T04:44:24;248.60;;;62.70;;
17670;SDS011;8954;48.694;8.940;2022-12-07T04:46:50;247.00;;;60.83;;
17670;SDS011;8954;48.694;8.940;2022-12-07T04:49:17;248.37;;;61.33;;
17670;SDS011;8954;48.694;8.940;2022-12-07T04:51:43;247.43;;;60.77;;
17670;SDS011;8954;48.694;8.940;2022-12-07T04:54:09;248.17;;;61.30;;
17670;SDS011;8954;48.694;8.940;2022-12-07T04:56:35;249.77;;;63.93;;
17670;SDS011;8954;48.694;8.940;2022-12-07T04:59:01;248.80;;;61.67;;
17670;SDS011;8954;48.694;8.940;2022-12-07T05:01:28;248.17;;;62.00;;
17670;SDS011;8954;48.694;8.940;2022-12-07T05:03:54;249.77;;;62.83;;
17670;SDS011;8954;48.694;8.940;2022-12-07T05:06:19;249.13;;;61.47;;
17670;SDS011;8954;48.694;8.940;2022-12-07T05:08:45;250.27;;;63.17;;
17670;SDS011;8954;48.694;8.940;2022-12-07T05:11:11;254.13;;;65.17;;
17670;SDS011;8954;48.694;8.940;2022-12-07T05:14:00;252.40;;;63.50;;
17670;SDS011;8954;48.694;8.940;2022-12-07T05:16:27;248.13;;;61.53;;
17670;SDS011;8954;48.694;8.940;2022-12-07T05:18:52;251.57;;;63.80;;
17670;SDS011;8954;48.694;8.940;2022-12-07T05:21:18;249.07;;;62.03;;
17670;SDS011;8954;48.694;8.940;2022-12-07T05:23:43;251.67;;;64.03;;
17670;SDS011;8954;48.694;8.940;2022-12-07T05:26:09;254.97;;;65.00;;
17670;SDS011;8954;48.694;8.940;2022-12-07T05:28:35;255.40;;;65.93;;
17670;SDS011;8954;48.694;8.940;2022-12-07T05:31:00;254.50;;;65.27;;
17670;SDS011;8954;48.694;8.940;2022-12-07T05:33:26;250.23;;;62.43;;
17670;SDS011;8954;48.694;8.940;2022-12-07T05:35:52;251.67;;;62.30;;
17670;SDS011;8954;48.694;8.940;2022-12-07T05:38:17;254.33;;;64.93;;
17670;SDS011;8954;48.694;8.940;2022-12-07T05:40:43;251.37;;;62.70;;
17670;SDS011;8954;48.694;8.940;2022-12-07T05:43:08;251.13;;;62.13;;
17670;SDS011;8954;48.694;8.940;2022-12-07T05:45:35;254.00;;;64.57;;
17670;SDS011;8954;48.694;8.940;2022-12-07T05:48:01;250.77;;;62.23;;
17670;SDS011;8954;48.694;8.940;2022-12-07T05:50:26;254.60;;;64.97;;
17670;SDS011;8954;48.694;8.940;2022-12-07T05:52:53;253.87;;;63.10;;
17670;SDS011;8954;48.694;8.940;2022-12-07T05:55:18;254.20;;;64.10;;
17670;SDS011;8954;48.694;8.940;2022-12-07T05:57:44;253.37;;;63.23;;
17670;SDS011;8954;48.694;8.940;2022-12-07T06:00:30;254.23;;;63.80;;
17670;SDS011;8954;48.694;8.940;2022-12-07T06:02:56;254.30;;;64.27;;
17670;SDS011;8954;48.694;8.940;2022-12-07T06:05:21;254.73;;;64.27;;
17670;SDS011;8954;48.694;8.940;2022-12-07T06:07:47;253.03;;;63.57;;
17670;SDS011;8954;48.694;8.940;2022-12-07T06:10:12;252.23;;;63.43;;
17670;SDS011;8954;48.694;8.940;2022-12-07T06:12:38;254.47;;;63.17;;
17670;SDS011;8954;48.694;8.940;2022-12-07T06:15:07;253.87;;;62.67;;
17670;SDS011;8954;48.694;8.940;2022-12-07T06:17:33;253.30;;;63.53;;
17670;SDS011;8954;48.694;8.940;2022-12-07T06:19:59;254.47;;;64.40;;
17670;SDS011;8954;48.694;8.940;2022-12-07T06:22:24;255.93;;;65.47;;
17670;SDS011;8954;48.694;8.940;2022-12-07T06:24:50;248.23;;;61.13;;
17670;SDS011;8954;48.694;8.940;2022-12-07T06:27:15;251.70;;;62.40;;
17670;SDS011;8954;48.694;8.940;2022-12-07T06:29:41;251.33;;;61.93;;
17670;SDS011;8954;48.694;8.940;2022-12-07T06:32:06;254.70;;;64.30;;
17670;SDS011;8954;48.694;8.940;2022-12-07T06:34:32;252.37;;;64.43;;
17670;SDS011;8954;48.694;8.940;2022-12-07T06:36:58;254.30;;;65.50;;
17670;SDS011;8954;48.694;8.940;2022-12-07T06:39:24;249.30;;;61.57;;
17670;SDS011;8954;48.694;8.940;2022-12-07T06:41:51;256.13;;;65.93;;
17670;SDS011;8954;48.694;8.940;2022-12-07T06:44:17;249.57;;;62.30;;
17670;SDS011;8954;48.694;8.940;2022-12-07T06:46:43;249.10;;;61.50;;
17670;SDS011;8954;48.694;8.940;2022-12-07T06:49:09;251.60;;;63.87;;
17670;SDS011;8954;48.694;8.940;2022-12-07T06:51:35;253.97;;;64.73;;
17670;SDS011;8954;48.694;8.940;2022-12-07T06:54:02;253.87;;;65.43;;
17670;SDS011;8954;48.694;8.940;2022-12-07T06:56:28;253.13;;;65.60;;
17670;SDS011;8954;48.694;8.940;2022-12-07T06:58:54;252.60;;;64.80;;
17670;SDS011;8954;48.694;8.940;2022-12-07T07:01:20;251.63;;;61.97;;
17670;SDS011;8954;48.694;8.940;2022-12-07T07:03:46;251.70;;;64.20;;
17670;SDS011;8954;48.694;8.940;2022-12-07T07:06:12;252.50;;;63.33;;
17670;SDS011;8954;48.694;8.940;2022-12-07T07:08:38;254.50;;;66.53;;
17670;SDS011;8954;48.694;8.940;2022-12-07T07:11:05;251.20;;;63.97;;
17670;SDS011;8954;48.694;8.940;2022-12-07T07:13:32;255.33;;;68.90;;
17670;SDS011;8954;48.694;8.940;2022-12-07T07:15:58;250.73;;;63.67;;
17670;SDS011;8954;48.694;8.940;2022-12-07T07:18:24;251.10;;;64.47;;
17670;SDS011;8954;48.694;8.940;2022-12-07T07:20:50;249.33;;;62.50;;
17670;SDS011;8954;48.694;8.940;2022-12-07T07:23:17;252.57;;;63.97;;
17670;SDS011;8954;48.694;8.940;2022-12-07T07:25:42;249.13;;;62.27;;
17670;SDS011;8954;48.694;8.940;2022-12-07T07:28:09;249.97;;;63.47;;
17670;SDS011;8954;48.694;8.940;2022-12-07T07:30:34;249.70;;;63.20;;
17670;SDS011;8954;48.694;8.940;2022-12-07T07:33:00;252.57;;;67.07;;
17670;SDS011;8954;48.694;8.940;2022-12-07T07:35:28;252.60;;;65.77;;
17670;SDS011;8954;48.694;8.940;2022-12-07T07:37:54;253.43;;;66.10;;
17670;SDS011;8954;48.694;8.940;2022-12-07T07:40:20;251.40;;;65.07;;
17670;SDS011;8954;48.694;8.940;2022-12-07T07:42:49;250.30;;;63.27;;
17670;SDS011;8954;48.694;8.940;2022-12-07T07:45:16;250.27;;;62.63;;
17670;SDS011;8954;48.694;8.940;2022-12-07T07:47:42;251.83;;;63.73;;
17670;SDS011;8954;48.694;8.940;2022-12-07T07:50:08;252.43;;;64.70;;
17670;SDS011;8954;48.694;8.940;2022-12-07T07:52:34;249.47;;;62.60;;
17670;SDS011;8954;48.694;8.940;2022-12-07T07:54:59;252.00;;;64.37;;
17670;SDS011;8954;48.694;8.940;2022-12-07T07:57:25;253.40;;;63.87;;
17670;SDS011;8954;48.694;8.940;2022-12-07T07:59:50;251.30;;;62.17;;
17670;SDS011;8954;48.694;8.940;2022-12-07T08:02:17;253.13;;;66.00;;
17670;SDS011;8954;48.694;8.940;2022-12-07T08:04:44;249.13;;;61.73;;
17670;SDS011;8954;48.694;8.940;2022-12-07T08:07:10;250.63;;;62.97;;
17670;SDS011;8954;48.694;8.940;2022-12-07T08:09:37;248.37;;;61.93;;
17670;SDS011;8954;48.694;8.940;2022-12-07T08:12:02;254.93;;;64.03;;
17670;SDS011;8954;48.694;8.940;2022-12-07T08:14:28;251.27;;;63.60;;
17670;SDS011;8954;48.694;8.940;2022-12-07T08:16:54;248.53;;;61.70;;
17670;SDS011;8954;48.694;8.940;2022-12-07T08:19:20;248.83;;;61.80;;
17670;SDS011;8954;48.694;8.940;2022-12-07T08:21:46;246.93;;;60.90;;
17670;SDS011;8954;48.694;8.940;2022-12-07T08:24:11;248.40;;;61.07;;
17670;SDS011;8954;48.694;8.940;2022-12-07T08:26:37;251.67;;;63.67;;
17670;SDS011;8954;48.694;8.940;2022-12-07T08:29:03;251.93;;;64.33;;
17670;SDS011;8954;48.694;8.940;2022-12-07T08:31:28;257.87;;;70.20;;
17670;SDS011;8954;48.694;8.940;2022-12-07T08:33:54;252.33;;;65.57;;
17670;SDS011;8954;48.694;8.940;2022-12-07T08:36:20;249.87;;;62.80;;
17670;SDS011;8954;48.694;8.940;2022-12-07T08:38:47;259.43;;;70.10;;
17670;SDS011;8954;48.694;8.940;2022-12-07T08:41:13;249.20;;;62.70;;
17670;SDS011;8954;48.694;8.940;2022-12-07T08:43:38;248.63;;;62.47;;
17670;SDS011;8954;48.694;8.940;2022-12-07T08:46:21;252.17;;;63.27;;
17670;SDS011;8954;48.694;8.940;2022-12-07T08:48:52;254.80;;;64.07;;
17670;SDS011;8954;48.694;8.940;2022-12-07T08:51:26;252.30;;;63.90;;
17670;SDS011;8954;48.694;8.940;2022-12-07T08:53:52;252.83;;;64.00;;
17670;SDS011;8954;48.694;8.940;2022-12-07T08:56:20;249.87;;;64.53;;
17670;SDS011;8954;48.694;8.940;2022-12-07T08:58:46;255.70;;;63.87;;
17670;SDS011;8954;48.694;8.940;2022-12-07T09:01:12;248.87;;;62.83;;
17670;SDS011;8954;48.694;8.940;2022-12-07T09:03:37;252.90;;;66.27;;
17670;SDS011;8954;48.694;8.940;2022-12-07T09:06:03;252.50;;;64.20;;
17670;SDS011;8954;48.694;8.940;2022-12-07T09:08:33;300.48;;;81.18;;
17670;SDS011;8954;48.694;8.940;2022-12-07T09:11:03;262.43;;;66.23;;
17670;SDS011;8954;48.694;8.940;2022-12-07T09:13:28;256.53;;;63.83;;
17670;SDS011;8954;48.694;8.940;2022-12-07T09:15:54;283.80;;;68.78;;
17670;SDS011;8954;48.694;8.940;2022-12-07T09:18:20;261.30;;;64.50;;
17670;SDS011;8954;48.694;8.940;2022-12-07T09:20:45;255.77;;;64.17;;
17670;SDS011;8954;48.694;8.940;2022-12-07T09:23:11;255.43;;;64.43;;
17670;SDS011;8954;48.694;8.940;2022-12-07T09:25:36;254.83;;;63.93;;
17670;SDS011;8954;48.694;8.940;2022-12-07T09:28:02;255.03;;;63.43;;
17670;SDS011;8954;48.694;8.940;2022-12-07T09:30:28;292.58;;;73.25;;
17670;SDS011;8954;48.694;8.940;2022-12-07T09:32:54;307.58;;;85.47;;
17670;SDS011;8954;48.694;8.940;2022-12-07T09:35:21;277.37;;;69.17;;
17670;SDS011;8954;48.694;8.940;2022-12-07T09:37:48;302.50;;;79.78;;
17670;SDS011;8954;48.694;8.940;2022-12-07T09:40:13;277.10;;;70.43;;
17670;SDS011;8954;48.694;8.940;2022-12-07T09:42:42;265.70;;;66.07;;
17670;SDS011;8954;48.694;8.940;2022-12-07T09:45:13;263.27;;;66.47;;
17670;SDS011;8954;48.694;8.940;2022-12-07T09:47:41;261.47;;;65.60;;
17670;SDS011;8954;48.694;8.940;2022-12-07T09:50:12;262.13;;;66.23;;
17670;SDS011;8954;48.694;8.940;2022-12-07T09:52:40;259.57;;;64.53;;
17670;SDS011;8954;48.694;8.940;2022-12-07T09:55:09;258.60;;;64.07;;
17670;SDS011;8954;48.694;8.940;2022-12-07T09:57:37;259.23;;;63.17;;
17670;SDS011;8954;48.694;8.940;2022-12-07T10:00:06;260.40;;;64.83;;
17670;SDS011;8954;48.694;8.940;2022-12-07T10:02:38;263.70;;;65.60;;
17670;SDS011;8954;48.694;8.940;2022-12-07T10:05:20;297.70;;;76.15;;
17670;SDS011;8954;48.694;8.940;2022-12-07T10:08:12;312.10;;;93.10;;
17670;SDS011;8954;48.694;8.940;2022-12-07T10:10:38;287.20;;;73.00;;
17670;SDS011;8954;48.694;8.940;2022-12-07T10:13:06;279.53;;;71.67;;
17670;SDS011;8954;48.694;8.940;2022-12-07T10:18:14;269.57;;;66.43;;
17670;SDS011;8954;48.694;8.940;2022-12-07T10:20:44;270.43;;;68.27;;
17670;SDS011;8954;48.694;8.940;2022-12-07T10:23:15;279.33;;;70.68;;
17670;SDS011;8954;48.694;8.940;2022-12-07T10:25:42;271.40;;;68.23;;
17670;SDS011;8954;48.694;8.940;2022-12-07T10:35:59;285.10;;;70.90;;
17670;SDS011;8954;48.694;8.940;2022-12-07T10:38:27;268.80;;;67.63;;
17670;SDS011;8954;48.694;8.940;2022-12-07T10:41:03;263.43;;;65.20;;
17670;SDS011;8954;48.694;8.940;2022-12-07T10:43:33;265.63;;;66.30;;
17670;SDS011;8954;48.694;8.940;2022-12-07T10:49:04;263.43;;;65.83;;
17670;SDS011;8954;48.694;8.940;2022-12-07T10:58:15;269.90;;;66.40;;
17670;SDS011;8954;48.694;8.940;2022-12-07T11:00:39;267.20;;;67.13;;
17670;SDS011;8954;48.694;8.940;2022-12-07T11:06:34;271.43;;;69.03;;
17670;SDS011;8954;48.694;8.940;2022-12-07T11:09:29;309.50;;;89.93;;
17670;SDS011;8954;48.694;8.940;2022-12-07T11:25:52;273.07;;;69.10;;
17670;SDS011;8954;48.694;8.940;2022-12-07T11:28:44;267.27;;;67.27;;
17670;SDS011;8954;48.694;8.940;2022-12-07T11:31:45;261.93;;;64.23;;
17670;SDS011;8954;48.694;8.940;2022-12-07T11:37:03;300.42;;;78.65;;
17670;SDS011;8954;48.694;8.940;2022-12-07T11:39:44;273.58;;;68.10;;
17670;SDS011;8954;48.694;8.940;2022-12-07T11:42:21;265.87;;;66.07;;
17670;SDS011;8954;48.694;8.940;2022-12-07T11:44:52;263.43;;;65.60;;
17670;SDS011;8954;48.694;8.940;2022-12-07T11:47:26;260.57;;;64.50;;
17670;SDS011;8954;48.694;8.940;2022-12-07T11:53:10;259.17;;;64.20;;
17670;SDS011;8954;48.694;8.940;2022-12-07T11:55:42;258.17;;;63.23;;
17670;SDS011;8954;48.694;8.940;2022-12-07T12:01:08;271.13;;;66.67;;
17670;SDS011;8954;48.694;8.940;2022-12-07T12:03:37;263.33;;;64.70;;
17670;SDS011;8954;48.694;8.940;2022-12-07T12:06:07;261.77;;;64.20;;
17670;SDS011;8954;48.694;8.940;2022-12-07T12:08:38;260.80;;;63.87;;
17670;SDS011;8954;48.694;8.940;2022-12-07T12:14:24;308.02;;;87.95;;
17670;SDS011;8954;48.694;8.940;2022-12-07T12:17:17;279.87;;;72.93;;
17670;SDS011;8954;48.694;8.940;2022-12-07T12:20:03;310.60;;;91.22;;
17670;SDS011;8954;48.694;8.940;2022-12-07T12:22:43;279.10;;;69.93;;
17670;SDS011;8954;48.694;8.940;2022-12-07T12:25:16;272.20;;;68.07;;
17670;SDS011;8954;48.694;8.940;2022-12-07T12:27:50;270.03;;;68.20;;
17670;SDS011;8954;48.694;8.940;2022-12-07T12:33:05;264.97;;;66.23;;
17670;SDS011;8954;48.694;8.940;2022-12-07T12:35:39;265.60;;;66.83;;
17670;SDS011;8954;48.694;8.940;2022-12-07T12:38:25;263.67;;;68.13;;
17670;SDS011;8954;48.694;8.940;2022-12-07T12:40:58;260.93;;;64.80;;
17670;SDS011;8954;48.694;8.940;2022-12-07T12:47:38;260.00;;;64.93;;
17670;SDS011;8954;48.694;8.940;2022-12-07T12:51:53;260.50;;;66.10;;
17670;SDS011;8954;48.694;8.940;2022-12-07T12:59:42;285.45;;;71.00;;
17670;SDS011;8954;48.694;8.940;2022-12-07T13:02:27;259.83;;;64.50;;
17670;SDS011;8954;48.694;8.940;2022-12-07T13:15:48;257.70;;;62.43;;
17670;SDS011;8954;48.694;8.940;2022-12-07T13:18:40;258.10;;;64.00;;
17670;SDS011;8954;48.694;8.940;2022-12-07T13:29:09;279.67;;;70.10;;
17670;SDS011;8954;48.694;8.940;2022-12-07T13:31:44;305.85;;;82.78;;
17670;SDS011;8954;48.694;8.940;2022-12-07T13:39:50;264.67;;;64.70;;
17670;SDS011;8954;48.694;8.940;2022-12-07T13:42:39;265.67;;;66.23;;
17670;SDS011;8954;48.694;8.940;2022-12-07T13:48:17;260.37;;;63.23;;
17670;SDS011;8954;48.694;8.940;2022-12-07T13:51:25;262.63;;;66.80;;
17670;SDS011;8954;48.694;8.940;2022-12-07T13:53:53;261.03;;;64.17;;
17670;SDS011;8954;48.694;8.940;2022-12-07T13:56:21;262.00;;;65.97;;
17670;SDS011;8954;48.694;8.940;2022-12-07T13:58:50;263.00;;;65.23;;
17670;SDS011;8954;48.694;8.940;2022-12-07T14:01:16;262.67;;;65.83;;
17670;SDS011;8954;48.694;8.940;2022-12-07T14:03:43;260.17;;;62.67;;
17670;SDS011;8954;48.694;8.940;2022-12-07T14:06:20;260.70;;;64.67;;
17670;SDS011;8954;48.694;8.940;2022-12-07T14:09:05;261.67;;;66.07;;
17670;SDS011;8954;48.694;8.940;2022-12-07T14:11:42;263.87;;;68.23;;
17670;SDS011;8954;48.694;8.940;2022-12-07T14:14:22;260.03;;;64.77;;
17670;SDS011;8954;48.694;8.940;2022-12-07T14:16:55;308.52;;;87.18;;
17670;SDS011;8954;48.694;8.940;2022-12-07T14:22:20;270.40;;;69.07;;
17670;SDS011;8954;48.694;8.940;2022-12-07T14:24:48;265.43;;;66.83;;
17670;SDS011;8954;48.694;8.940;2022-12-07T14:27:21;264.40;;;66.83;;
17670;SDS011;8954;48.694;8.940;2022-12-07T14:29:50;263.73;;;67.13;;
17670;SDS011;8954;48.694;8.940;2022-12-07T14:32:26;303.50;;;81.30;;
17670;SDS011;8954;48.694;8.940;2022-12-07T14:35:01;274.70;;;70.13;;
17670;SDS011;8954;48.694;8.940;2022-12-07T14:37:33;268.13;;;69.03;;
17670;SDS011;8954;48.694;8.940;2022-12-07T14:39:58;265.93;;;67.47;;
17670;SDS011;8954;48.694;8.940;2022-12-07T14:42:26;263.07;;;66.67;;
17670;SDS011;8954;48.694;8.940;2022-12-07T14:44:54;262.43;;;66.87;;
17670;SDS011;8954;48.694;8.940;2022-12-07T14:47:20;262.70;;;67.97;;
17670;SDS011;8954;48.694;8.940;2022-12-07T14:49:46;261.30;;;66.10;;
17670;SDS011;8954;48.694;8.940;2022-12-07T14:52:30;260.40;;;67.03;;
17670;SDS011;8954;48.694;8.940;2022-12-07T14:54:55;258.63;;;65.43;;
17670;SDS011;8954;48.694;8.940;2022-12-07T14:57:21;258.70;;;65.60;;
17670;SDS011;8954;48.694;8.940;2022-12-07T14:59:47;296.90;;;76.25;;
17670;SDS011;8954;48.694;8.940;2022-12-07T15:02:13;268.03;;;68.70;;
17670;SDS011;8954;48.694;8.940;2022-12-07T15:04:41;260.37;;;65.60;;
17670;SDS011;8954;48.694;8.940;2022-12-07T15:07:10;261.90;;;69.37;;
17670;SDS011;8954;48.694;8.940;2022-12-07T15:09:43;254.20;;;62.47;;
17670;SDS011;8954;48.694;8.940;2022-12-07T15:12:08;260.03;;;66.90;;
17670;SDS011;8954;48.694;8.940;2022-12-07T15:14:34;256.37;;;64.57;;
17670;SDS011;8954;48.694;8.940;2022-12-07T15:17:00;256.80;;;66.17;;
17670;SDS011;8954;48.694;8.940;2022-12-07T15:19:25;258.47;;;66.60;;
17670;SDS011;8954;48.694;8.940;2022-12-07T15:21:52;254.83;;;64.13;;
17670;SDS011;8954;48.694;8.940;2022-12-07T15:24:18;251.43;;;62.00;;
17670;SDS011;8954;48.694;8.940;2022-12-07T15:26:44;254.47;;;63.97;;
17670;SDS011;8954;48.694;8.940;2022-12-07T15:29:10;259.17;;;67.87;;
17670;SDS011;8954;48.694;8.940;2022-12-07T15:31:36;254.97;;;64.87;;
17670;SDS011;8954;48.694;8.940;2022-12-07T15:34:02;256.17;;;66.63;;
17670;SDS011;8954;48.694;8.940;2022-12-07T15:36:29;263.33;;;71.80;;
17670;SDS011;8954;48.694;8.940;2022-12-07T15:38:56;251.80;;;62.63;;
17670;SDS011;8954;48.694;8.940;2022-12-07T15:41:22;251.80;;;62.57;;
17670;SDS011;8954;48.694;8.940;2022-12-07T15:43:48;251.07;;;61.43;;
17670;SDS011;8954;48.694;8.940;2022-12-07T15:46:34;254.37;;;65.33;;
17670;SDS011;8954;48.694;8.940;2022-12-07T15:49:02;251.43;;;61.83;;
17670;SDS011;8954;48.694;8.940;2022-12-07T15:51:28;250.67;;;62.13;;
17670;SDS011;8954;48.694;8.940;2022-12-07T15:53:54;249.97;;;61.30;;
17670;SDS011;8954;48.694;8.940;2022-12-07T15:56:19;250.83;;;62.87;;
17670;SDS011;8954;48.694;8.940;2022-12-07T15:58:45;250.73;;;61.93;;
17670;SDS011;8954;48.694;8.940;2022-12-07T16:01:12;253.97;;;65.40;;
17670;SDS011;8954;48.694;8.940;2022-12-07T16:03:39;251.80;;;63.53;;
17670;SDS011;8954;48.694;8.940;2022-12-07T16:06:04;256.33;;;66.10;;
17670;SDS011;8954;48.694;8.940;2022-12-07T16:08:30;251.27;;;62.80;;
17670;SDS011;8954;48.694;8.940;2022-12-07T16:10:55;253.00;;;64.30;;
17670;SDS011;8954;48.694;8.940;2022-12-07T16:13:21;255.63;;;64.13;;
17670;SDS011;8954;48.694;8.940;2022-12-07T16:15:47;251.67;;;63.83;;
17670;SDS011;8954;48.694;8.940;2022-12-07T16:18:12;252.07;;;63.60;;
17670;SDS011;8954;48.694;8.940;2022-12-07T16:20:38;253.53;;;64.27;;
17670;SDS011;8954;48.694;8.940;2022-12-07T16:23:04;251.10;;;61.80;;
17670;SDS011;8954;48.694;8.940;2022-12-07T16:25:30;252.43;;;63.73;;
17670;SDS011;8954;48.694;8.940;2022-12-07T16:27:55;253.47;;;63.77;;
17670;SDS011;8954;48.694;8.940;2022-12-07T16:30:21;254.63;;;64.97;;
17670;SDS011;8954;48.694;8.940;2022-12-07T16:32:46;253.90;;;65.20;;
17670;SDS011;8954;48.694;8.940;2022-12-07T16:35:12;251.30;;;61.57;;